sensor_id;sensor_type;location;lat;lon;timestamp;pressure;altitude;pressure_sealevel;temperature;humidity
56795;BME280;42678;59.400;18.410;2022-10-17T00:01:34;100781.81;;;9.46;79.53
56795;BME280;42678;59.400;18.410;2022-10-17T00:03:59;100800.38;;;9.49;79.08
56795;BME280;42678;59.400;18.410;2022-10-17T00:06:25;100802.31;;;9.47;79.53
56795;BME280;42678;59.400;18.410;2022-10-17T00:08:50;100802.47;;;9.56;79.17
56795;BME280;42678;59.400;18.410;2022-10-17T00:11:19;100811.69;;;9.65;78.45
56795;BME280;42678;59.400;18.410;2022-10-17T00:13:46;100802.88;;;9.63;78.84
56795;BME280;42678;59.400;18.410;2022-10-17T00:16:12;100819.22;;;9.60;78.85
56795;BME280;42678;59.400;18.410;2022-10-17T00:18:38;100819.84;;;9.63;79.26
56795;BME280;42678;59.400;18.410;2022-10-17T00:21:04;100817.91;;;9.65;78.85
56795;BME280;42678;59.400;18.410;2022-10-17T00:23:30;100820.00;;;9.73;78.67
56795;BME280;42678;59.400;18.410;2022-10-17T00:26:04;100825.16;;;9.76;78.64
56795;BME280;42678;59.400;18.410;2022-10-17T00:28:31;100833.94;;;9.78;78.40
56795;BME280;42678;59.400;18.410;2022-10-17T00:30:59;100831.66;;;9.85;78.26
56795;BME280;42678;59.400;18.410;2022-10-17T00:33:26;100827.41;;;9.93;77.64
56795;BME280;42678;59.400;18.410;2022-10-17T00:38:33;100841.59;;;9.95;78.12
56795;BME280;42678;59.400;18.410;2022-10-17T00:40:58;100843.91;;;10.00;77.63
56795;BME280;42678;59.400;18.410;2022-10-17T00:43:24;100846.03;;;10.08;77.12
56795;BME280;42678;59.400;18.410;2022-10-17T00:45:51;100852.00;;;10.11;77.28
56795;BME280;42678;59.400;18.410;2022-10-17T00:48:18;100858.47;;;10.09;77.83
56795;BME280;42678;59.400;18.410;2022-10-17T00:50:46;100860.19;;;10.10;77.43
56795;BME280;42678;59.400;18.410;2022-10-17T00:53:13;100850.78;;;10.15;77.50
56795;BME280;42678;59.400;18.410;2022-10-17T00:55:48;100863.13;;;10.18;77.92
56795;BME280;42678;59.400;18.410;2022-10-17T00:58:15;100855.59;;;10.23;77.30
56795;BME280;42678;59.400;18.410;2022-10-17T01:00:42;100870.66;;;10.26;77.36
56795;BME280;42678;59.400;18.410;2022-10-17T01:03:08;100874.19;;;10.26;77.69
56795;BME280;42678;59.400;18.410;2022-10-17T01:05:34;100862.22;;;10.30;77.38
56795;BME280;42678;59.400;18.410;2022-10-17T01:08:00;100871.50;;;10.26;77.62
56795;BME280;42678;59.400;18.410;2022-10-17T01:10:31;100870.53;;;10.27;78.04
56795;BME280;42678;59.400;18.410;2022-10-17T01:13:23;100870.91;;;10.34;77.88
56795;BME280;42678;59.400;18.410;2022-10-17T01:15:57;100885.19;;;10.34;77.66
56795;BME280;42678;59.400;18.410;2022-10-17T01:18:58;100887.88;;;10.34;76.97
56795;BME280;42678;59.400;18.410;2022-10-17T01:21:46;100897.28;;;10.29;77.71
56795;BME280;42678;59.400;18.410;2022-10-17T01:27:25;100898.78;;;10.44;76.55
56795;BME280;42678;59.400;18.410;2022-10-17T01:32:57;100892.06;;;10.49;76.47
56795;BME280;42678;59.400;18.410;2022-10-17T01:35:36;100906.25;;;10.51;76.59
56795;BME280;42678;59.400;18.410;2022-10-17T01:38:23;100911.63;;;10.51;76.94
56795;BME280;42678;59.400;18.410;2022-10-17T01:43:43;100935.34;;;10.58;76.54
56795;BME280;42678;59.400;18.410;2022-10-17T01:46:42;100928.91;;;10.60;76.10
56795;BME280;42678;59.400;18.410;2022-10-17T01:49:12;100943.19;;;10.61;75.77
56795;BME280;42678;59.400;18.410;2022-10-17T01:51:44;100950.78;;;10.67;75.73
56795;BME280;42678;59.400;18.410;2022-10-17T01:54:20;100945.28;;;10.68;75.00
56795;BME280;42678;59.400;18.410;2022-10-17T01:56:49;100954.91;;;10.60;75.73
56795;BME280;42678;59.400;18.410;2022-10-17T01:59:21;100965.19;;;10.66;75.51
56795;BME280;42678;59.400;18.410;2022-10-17T02:01:50;100959.81;;;10.66;75.17
56795;BME280;42678;59.400;18.410;2022-10-17T02:04:17;100967.28;;;10.73;75.00
56795;BME280;42678;59.400;18.410;2022-10-17T02:06:44;100969.00;;;10.74;75.48
56795;BME280;42678;59.400;18.410;2022-10-17T02:09:24;100977.19;;;10.73;74.72
56795;BME280;42678;59.400;18.410;2022-10-17T02:17:44;101002.13;;;10.75;74.67
56795;BME280;42678;59.400;18.410;2022-10-17T02:25:37;101021.72;;;10.77;75.24
56795;BME280;42678;59.400;18.410;2022-10-17T02:28:20;100993.09;;;10.76;74.72
56795;BME280;42678;59.400;18.410;2022-10-17T02:30:53;101008.84;;;10.69;74.71
56795;BME280;42678;59.400;18.410;2022-10-17T02:36:23;101028.00;;;10.65;74.72
56795;BME280;42678;59.400;18.410;2022-10-17T02:38:52;101040.00;;;10.61;75.39
56795;BME280;42678;59.400;18.410;2022-10-17T02:41:21;101043.97;;;10.55;75.62
56795;BME280;42678;59.400;18.410;2022-10-17T02:43:49;101041.28;;;10.55;75.19
56795;BME280;42678;59.400;18.410;2022-10-17T02:46:17;101050.06;;;10.46;76.08
56795;BME280;42678;59.400;18.410;2022-10-17T02:51:34;101049.38;;;10.31;76.38
56795;BME280;42678;59.400;18.410;2022-10-17T02:54:27;101054.00;;;10.29;76.48
56795;BME280;42678;59.400;18.410;2022-10-17T02:59:49;101071.22;;;10.14;77.13
56795;BME280;42678;59.400;18.410;2022-10-17T03:02:15;101079.19;;;10.03;77.44
56795;BME280;42678;59.400;18.410;2022-10-17T03:04:45;101089.94;;;10.03;77.50
56795;BME280;42678;59.400;18.410;2022-10-17T03:07:11;101072.31;;;10.11;77.19
56795;BME280;42678;59.400;18.410;2022-10-17T03:09:36;101091.78;;;10.02;77.62
56795;BME280;42678;59.400;18.410;2022-10-17T03:12:02;101091.66;;;10.04;77.39
56795;BME280;42678;59.400;18.410;2022-10-17T03:14:28;101089.09;;;10.02;77.80
56795;BME280;42678;59.400;18.410;2022-10-17T03:16:54;101094.47;;;9.89;78.24
56795;BME280;42678;59.400;18.410;2022-10-17T03:19:19;101107.50;;;9.95;77.90
56795;BME280;42678;59.400;18.410;2022-10-17T03:21:45;101106.53;;;9.84;78.34
56795;BME280;42678;59.400;18.410;2022-10-17T03:24:10;101107.06;;;9.89;78.21
56795;BME280;42678;59.400;18.410;2022-10-17T03:26:36;101122.84;;;9.93;78.18
56795;BME280;42678;59.400;18.410;2022-10-17T03:29:03;101108.06;;;9.75;78.71
56795;BME280;42678;59.400;18.410;2022-10-17T03:31:28;101125.66;;;9.79;78.95
56795;BME280;42678;59.400;18.410;2022-10-17T03:33:54;101135.66;;;9.77;78.64
56795;BME280;42678;59.400;18.410;2022-10-17T03:36:19;101133.63;;;9.81;78.29
56795;BME280;42678;59.400;18.410;2022-10-17T03:38:46;101141.44;;;9.71;78.85
56795;BME280;42678;59.400;18.410;2022-10-17T03:41:12;101140.28;;;9.75;79.05
56795;BME280;42678;59.400;18.410;2022-10-17T03:43:38;101149.09;;;9.77;78.77
56795;BME280;42678;59.400;18.410;2022-10-17T03:46:04;101172.91;;;9.82;79.02
56795;BME280;42678;59.400;18.410;2022-10-17T03:48:31;101171.53;;;9.76;78.68
56795;BME280;42678;59.400;18.410;2022-10-17T03:51:05;101172.91;;;9.69;79.15
56795;BME280;42678;59.400;18.410;2022-10-17T03:53:31;101182.47;;;9.73;78.71
56795;BME280;42678;59.400;18.410;2022-10-17T03:56:14;101185.59;;;9.67;79.36
56795;BME280;42678;59.400;18.410;2022-10-17T03:58:40;101176.66;;;9.54;80.18
56795;BME280;42678;59.400;18.410;2022-10-17T04:01:09;101194.41;;;9.69;79.80
56795;BME280;42678;59.400;18.410;2022-10-17T04:03:35;101204.91;;;9.72;79.60
56795;BME280;42678;59.400;18.410;2022-10-17T04:06:02;101200.41;;;9.60;79.95
56795;BME280;42678;59.400;18.410;2022-10-17T04:08:28;101217.59;;;9.70;79.66
56795;BME280;42678;59.400;18.410;2022-10-17T04:10:58;101222.09;;;9.70;79.14
56795;BME280;42678;59.400;18.410;2022-10-17T04:13:24;101222.09;;;9.70;79.37
56795;BME280;42678;59.400;18.410;2022-10-17T04:15:57;101226.41;;;9.72;79.18
56795;BME280;42678;59.400;18.410;2022-10-17T04:18:23;101236.38;;;9.70;78.64
56795;BME280;42678;59.400;18.410;2022-10-17T04:20:49;101245.84;;;9.63;78.99
56795;BME280;42678;59.400;18.410;2022-10-17T04:23:15;101238.00;;;9.60;79.43
56795;BME280;42678;59.400;18.410;2022-10-17T04:25:40;101243.78;;;9.54;79.27
56795;BME280;42678;59.400;18.410;2022-10-17T04:28:06;101253.78;;;9.64;79.46
56795;BME280;42678;59.400;18.410;2022-10-17T04:30:32;101256.59;;;9.63;79.02
56795;BME280;42678;59.400;18.410;2022-10-17T04:32:57;101264.28;;;9.55;79.75
56795;BME280;42678;59.400;18.410;2022-10-17T04:35:23;101261.41;;;9.58;79.76
56795;BME280;42678;59.400;18.410;2022-10-17T04:37:48;101268.06;;;9.65;79.03
56795;BME280;42678;59.400;18.410;2022-10-17T04:40:14;101258.84;;;9.69;78.75
56795;BME280;42678;59.400;18.410;2022-10-17T04:42:40;101257.56;;;9.62;79.26
56795;BME280;42678;59.400;18.410;2022-10-17T04:45:06;101268.94;;;9.65;78.73
56795;BME280;42678;59.400;18.410;2022-10-17T04:47:33;101282.47;;;9.64;78.59
56795;BME280;42678;59.400;18.410;2022-10-17T04:49:58;101286.50;;;9.57;78.92
56795;BME280;42678;59.400;18.410;2022-10-17T04:52:24;101305.41;;;9.55;79.11
56795;BME280;42678;59.400;18.410;2022-10-17T04:54:50;101316.72;;;9.60;78.62
56795;BME280;42678;59.400;18.410;2022-10-17T04:57:16;101321.56;;;9.68;78.38
56795;BME280;42678;59.400;18.410;2022-10-17T04:59:42;101323.34;;;9.55;79.17
56795;BME280;42678;59.400;18.410;2022-10-17T05:02:08;101324.88;;;9.59;78.35
56795;BME280;42678;59.400;18.410;2022-10-17T05:04:34;101337.50;;;9.44;78.66
56795;BME280;42678;59.400;18.410;2022-10-17T05:06:59;101349.84;;;9.47;78.98
56795;BME280;42678;59.400;18.410;2022-10-17T05:09:26;101347.72;;;9.52;78.69
56795;BME280;42678;59.400;18.410;2022-10-17T05:11:51;101358.66;;;9.49;78.85
56795;BME280;42678;59.400;18.410;2022-10-17T05:14:17;101358.50;;;9.38;79.19
56795;BME280;42678;59.400;18.410;2022-10-17T05:16:43;101357.34;;;9.42;79.36
56795;BME280;42678;59.400;18.410;2022-10-17T05:19:10;101364.06;;;9.34;79.56
56795;BME280;42678;59.400;18.410;2022-10-17T05:21:35;101366.84;;;9.33;79.05
56795;BME280;42678;59.400;18.410;2022-10-17T05:24:05;101369.31;;;9.36;79.23
56795;BME280;42678;59.400;18.410;2022-10-17T05:26:31;101382.09;;;9.32;79.45
56795;BME280;42678;59.400;18.410;2022-10-17T05:28:59;101384.38;;;9.39;79.18
56795;BME280;42678;59.400;18.410;2022-10-17T05:31:25;101383.91;;;9.32;79.59
56795;BME280;42678;59.400;18.410;2022-10-17T05:33:50;101387.16;;;9.37;79.16
56795;BME280;42678;59.400;18.410;2022-10-17T05:36:16;101388.94;;;9.51;78.37
56795;BME280;42678;59.400;18.410;2022-10-17T05:38:42;101390.41;;;9.42;78.63
56795;BME280;42678;59.400;18.410;2022-10-17T05:41:08;101398.38;;;9.44;78.97
56795;BME280;42678;59.400;18.410;2022-10-17T05:43:34;101410.06;;;9.43;78.67
56795;BME280;42678;59.400;18.410;2022-10-17T05:46:04;101412.69;;;9.30;79.55
56795;BME280;42678;59.400;18.410;2022-10-17T05:48:30;101402.59;;;9.33;79.15
56795;BME280;42678;59.400;18.410;2022-10-17T05:51:03;101423.59;;;9.41;78.98
56795;BME280;42678;59.400;18.410;2022-10-17T05:53:31;101430.09;;;9.37;79.67
56795;BME280;42678;59.400;18.410;2022-10-17T05:55:59;101440.25;;;9.46;79.29
56795;BME280;42678;59.400;18.410;2022-10-17T05:58:26;101430.94;;;9.52;78.89
56795;BME280;42678;59.400;18.410;2022-10-17T06:00:57;101448.41;;;9.45;79.89
56795;BME280;42678;59.400;18.410;2022-10-17T06:03:23;101452.03;;;9.44;79.64
56795;BME280;42678;59.400;18.410;2022-10-17T06:05:49;101451.63;;;9.50;79.34
56795;BME280;42678;59.400;18.410;2022-10-17T06:08:16;101458.47;;;9.41;80.20
56795;BME280;42678;59.400;18.410;2022-10-17T06:10:41;101457.00;;;9.50;79.55
56795;BME280;42678;59.400;18.410;2022-10-17T06:13:07;101462.19;;;9.39;80.09
56795;BME280;42678;59.400;18.410;2022-10-17T06:15:33;101465.75;;;9.39;80.42
56795;BME280;42678;59.400;18.410;2022-10-17T06:17:59;101471.41;;;9.34;80.20
56795;BME280;42678;59.400;18.410;2022-10-17T06:20:24;101468.34;;;9.41;79.84
56795;BME280;42678;59.400;18.410;2022-10-17T06:22:50;101473.31;;;9.47;80.05
56795;BME280;42678;59.400;18.410;2022-10-17T06:25:16;101482.34;;;9.46;80.11
56795;BME280;42678;59.400;18.410;2022-10-17T06:27:41;101478.69;;;9.47;79.83
56795;BME280;42678;59.400;18.410;2022-10-17T06:30:07;101485.38;;;9.54;80.09
56795;BME280;42678;59.400;18.410;2022-10-17T06:32:33;101494.78;;;9.61;79.41
56795;BME280;42678;59.400;18.410;2022-10-17T06:34:59;101492.53;;;9.68;79.13
56795;BME280;42678;59.400;18.410;2022-10-17T06:37:24;101492.66;;;9.66;79.39
56795;BME280;42678;59.400;18.410;2022-10-17T06:39:50;101503.38;;;9.66;79.80
56795;BME280;42678;59.400;18.410;2022-10-17T06:42:15;101511.03;;;9.72;79.63
56795;BME280;42678;59.400;18.410;2022-10-17T06:44:41;101515.66;;;9.70;79.83
56795;BME280;42678;59.400;18.410;2022-10-17T06:47:08;101526.13;;;9.75;79.30
56795;BME280;42678;59.400;18.410;2022-10-17T06:49:34;101517.34;;;9.85;79.49
56795;BME280;42678;59.400;18.410;2022-10-17T06:51:59;101533.97;;;10.05;78.66
56795;BME280;42678;59.400;18.410;2022-10-17T06:54:25;101546.28;;;10.09;77.97
56795;BME280;42678;59.400;18.410;2022-10-17T06:56:52;101536.81;;;10.16;77.51
56795;BME280;42678;59.400;18.410;2022-10-17T06:59:18;101547.78;;;10.13;77.82
56795;BME280;42678;59.400;18.410;2022-10-17T07:01:44;101556.81;;;10.12;78.07
56795;BME280;42678;59.400;18.410;2022-10-17T07:04:09;101550.25;;;10.30;77.24
56795;BME280;42678;59.400;18.410;2022-10-17T07:06:35;101565.38;;;10.45;76.90
56795;BME280;42678;59.400;18.410;2022-10-17T07:09:02;101573.97;;;10.50;76.88
56795;BME280;42678;59.400;18.410;2022-10-17T07:11:27;101578.75;;;10.60;75.95
56795;BME280;42678;59.400;18.410;2022-10-17T07:13:53;101591.59;;;10.42;76.27
56795;BME280;42678;59.400;18.410;2022-10-17T07:16:19;101592.94;;;10.35;76.55
56795;BME280;42678;59.400;18.410;2022-10-17T07:18:48;101598.81;;;10.41;76.34
56795;BME280;42678;59.400;18.410;2022-10-17T07:21:13;101595.22;;;10.41;75.51
56795;BME280;42678;59.400;18.410;2022-10-17T07:23:39;101597.66;;;10.31;76.49
56795;BME280;42678;59.400;18.410;2022-10-17T07:26:09;101602.28;;;10.29;76.84
56795;BME280;42678;59.400;18.410;2022-10-17T07:28:37;101605.53;;;10.34;76.27
56795;BME280;42678;59.400;18.410;2022-10-17T07:31:05;101608.22;;;10.34;76.57
56795;BME280;42678;59.400;18.410;2022-10-17T07:33:31;101611.09;;;10.31;76.74
56795;BME280;42678;59.400;18.410;2022-10-17T07:35:58;101613.38;;;10.37;75.91
56795;BME280;42678;59.400;18.410;2022-10-17T07:38:25;101616.22;;;10.48;76.18
56795;BME280;42678;59.400;18.410;2022-10-17T07:40:57;101627.16;;;10.60;75.27
56795;BME280;42678;59.400;18.410;2022-10-17T07:43:24;101605.00;;;10.69;74.77
56795;BME280;42678;59.400;18.410;2022-10-17T07:45:50;101620.31;;;10.81;73.74
56795;BME280;42678;59.400;18.410;2022-10-17T07:48:16;101626.00;;;11.16;73.67
56795;BME280;42678;59.400;18.410;2022-10-17T07:50:44;101641.72;;;11.09;73.31
56795;BME280;42678;59.400;18.410;2022-10-17T07:53:09;101648.16;;;11.20;71.99
56795;BME280;42678;59.400;18.410;2022-10-17T07:55:39;101643.69;;;11.84;70.86
56795;BME280;42678;59.400;18.410;2022-10-17T07:58:05;101658.53;;;12.15;69.08
56795;BME280;42678;59.400;18.410;2022-10-17T08:00:31;101672.38;;;12.47;68.55
56795;BME280;42678;59.400;18.410;2022-10-17T08:02:57;101682.47;;;12.07;69.43
56795;BME280;42678;59.400;18.410;2022-10-17T08:05:22;101680.31;;;11.61;70.52
56795;BME280;42678;59.400;18.410;2022-10-17T08:07:48;101685.63;;;11.88;70.68
56795;BME280;42678;59.400;18.410;2022-10-17T08:10:14;101686.69;;;11.85;69.63
56795;BME280;42678;59.400;18.410;2022-10-17T08:12:40;101696.88;;;11.42;71.27
56795;BME280;42678;59.400;18.410;2022-10-17T08:15:07;101700.00;;;11.36;71.64
56795;BME280;42678;59.400;18.410;2022-10-17T08:17:34;101704.91;;;11.17;72.09
56795;BME280;42678;59.400;18.410;2022-10-17T08:20:00;101695.47;;;11.36;71.82
56795;BME280;42678;59.400;18.410;2022-10-17T08:22:25;101689.53;;;11.19;72.34
56795;BME280;42678;59.400;18.410;2022-10-17T08:24:51;101704.81;;;11.18;72.58
56795;BME280;42678;59.400;18.410;2022-10-17T08:27:17;101700.06;;;11.22;72.92
56795;BME280;42678;59.400;18.410;2022-10-17T08:29:48;101699.66;;;11.28;72.83
56795;BME280;42678;59.400;18.410;2022-10-17T08:32:21;101714.63;;;11.32;72.43
56795;BME280;42678;59.400;18.410;2022-10-17T08:34:49;101712.78;;;11.20;72.53
56795;BME280;42678;59.400;18.410;2022-10-17T08:37:15;101726.59;;;11.28;72.57
56795;BME280;42678;59.400;18.410;2022-10-17T08:39:41;101716.78;;;11.39;71.88
56795;BME280;42678;59.400;18.410;2022-10-17T08:42:44;101720.34;;;11.40;72.07
56795;BME280;42678;59.400;18.410;2022-10-17T08:48:01;101720.91;;;11.45;71.51
56795;BME280;42678;59.400;18.410;2022-10-17T08:50:49;101736.88;;;11.48;71.84
56795;BME280;42678;59.400;18.410;2022-10-17T08:53:37;101743.91;;;11.63;71.21
56795;BME280;42678;59.400;18.410;2022-10-17T08:56:16;101743.47;;;12.33;68.21
56795;BME280;42678;59.400;18.410;2022-10-17T08:58:43;101758.47;;;12.24;68.55
56795;BME280;42678;59.400;18.410;2022-10-17T09:07:35;101766.84;;;12.94;66.23
56795;BME280;42678;59.400;18.410;2022-10-17T09:19:00;101786.66;;;13.06;64.70
56795;BME280;42678;59.400;18.410;2022-10-17T09:21:46;101782.97;;;12.83;65.46
56795;BME280;42678;59.400;18.410;2022-10-17T09:24:23;101776.91;;;13.40;64.28
56795;BME280;42678;59.400;18.410;2022-10-17T09:26:50;101777.81;;;13.52;63.36
56795;BME280;42678;59.400;18.410;2022-10-17T09:29:25;101778.22;;;14.16;61.92
56795;BME280;42678;59.400;18.410;2022-10-17T09:32:01;101784.81;;;13.78;62.45
56795;BME280;42678;59.400;18.410;2022-10-17T09:34:28;101773.91;;;14.25;60.84
56795;BME280;42678;59.400;18.410;2022-10-17T09:37:00;101791.91;;;14.59;59.61
56795;BME280;42678;59.400;18.410;2022-10-17T09:39:27;101789.88;;;13.59;62.14
56795;BME280;42678;59.400;18.410;2022-10-17T09:41:59;101798.00;;;14.05;60.88
56795;BME280;42678;59.400;18.410;2022-10-17T09:44:34;101799.75;;;13.71;62.38
56795;BME280;42678;59.400;18.410;2022-10-17T09:50:17;101800.91;;;13.80;61.81
56795;BME280;42678;59.400;18.410;2022-10-17T09:52:45;101809.38;;;13.51;62.28
56795;BME280;42678;59.400;18.410;2022-10-17T09:55:44;101807.22;;;13.33;63.38
56795;BME280;42678;59.400;18.410;2022-10-17T09:58:12;101808.72;;;13.00;64.04
56795;BME280;42678;59.400;18.410;2022-10-17T10:00:42;101814.91;;;12.89;64.20
56795;BME280;42678;59.400;18.410;2022-10-17T10:05:38;101827.22;;;12.93;63.61
56795;BME280;42678;59.400;18.410;2022-10-17T10:08:14;101826.16;;;13.20;63.01
56795;BME280;42678;59.400;18.410;2022-10-17T10:10:41;101820.56;;;13.10;63.69
56795;BME280;42678;59.400;18.410;2022-10-17T10:15:42;101831.81;;;13.65;63.12
56795;BME280;42678;59.400;18.410;2022-10-17T10:21:19;101840.34;;;14.29;60.19
56795;BME280;42678;59.400;18.410;2022-10-17T10:24:10;101820.47;;;14.52;59.62
56795;BME280;42678;59.400;18.410;2022-10-17T10:29:21;101828.53;;;14.30;59.05
56795;BME280;42678;59.400;18.410;2022-10-17T10:31:48;101829.88;;;14.13;59.34
56795;BME280;42678;59.400;18.410;2022-10-17T10:34:19;101843.91;;;13.83;60.44
56795;BME280;42678;59.400;18.410;2022-10-17T10:37:03;101834.53;;;14.22;59.50
56795;BME280;42678;59.400;18.410;2022-10-17T10:42:07;101844.66;;;13.85;59.76
56795;BME280;42678;59.400;18.410;2022-10-17T10:44:35;101853.97;;;13.81;59.11
56795;BME280;42678;59.400;18.410;2022-10-17T10:47:07;101848.91;;;14.23;57.30
56795;BME280;42678;59.400;18.410;2022-10-17T10:49:34;101845.00;;;14.27;58.40
56795;BME280;42678;59.400;18.410;2022-10-17T10:52:00;101845.75;;;13.82;59.34
56795;BME280;42678;59.400;18.410;2022-10-17T10:54:32;101848.56;;;13.81;59.49
56795;BME280;42678;59.400;18.410;2022-10-17T10:57:03;101851.78;;;13.86;60.23
56795;BME280;42678;59.400;18.410;2022-10-17T11:02:14;101853.44;;;13.76;59.22
56795;BME280;42678;59.400;18.410;2022-10-17T11:05:36;101857.41;;;13.48;59.53
56795;BME280;42678;59.400;18.410;2022-10-17T11:08:02;101854.47;;;13.27;59.68
56795;BME280;42678;59.400;18.410;2022-10-17T11:13:14;101862.31;;;12.93;61.09
56795;BME280;42678;59.400;18.410;2022-10-17T11:18:44;101851.53;;;13.30;60.48
56795;BME280;42678;59.400;18.410;2022-10-17T11:21:36;101851.44;;;13.19;60.18
56795;BME280;42678;59.400;18.410;2022-10-17T11:24:22;101857.06;;;13.16;59.67
56795;BME280;42678;59.400;18.410;2022-10-17T11:26:59;101858.69;;;13.18;59.84
56795;BME280;42678;59.400;18.410;2022-10-17T11:29:29;101848.84;;;13.30;59.50
56795;BME280;42678;59.400;18.410;2022-10-17T11:31:57;101853.09;;;13.45;58.83
56795;BME280;42678;59.400;18.410;2022-10-17T11:34:26;101855.75;;;13.21;59.56
56795;BME280;42678;59.400;18.410;2022-10-17T11:37:22;101855.72;;;13.34;59.67
56795;BME280;42678;59.400;18.410;2022-10-17T11:39:53;101850.81;;;13.39;58.92
56795;BME280;42678;59.400;18.410;2022-10-17T11:42:26;101844.22;;;13.43;58.80
56795;BME280;42678;59.400;18.410;2022-10-17T11:44:58;101842.72;;;13.39;58.19
56795;BME280;42678;59.400;18.410;2022-10-17T11:47:43;101843.19;;;13.33;58.01
56795;BME280;42678;59.400;18.410;2022-10-17T11:50:26;101850.56;;;13.31;58.37
56795;BME280;42678;59.400;18.410;2022-10-17T11:53:19;101850.09;;;13.37;58.51
56795;BME280;42678;59.400;18.410;2022-10-17T11:55:46;101847.31;;;13.26;58.70
56795;BME280;42678;59.400;18.410;2022-10-17T11:58:42;101854.47;;;13.27;58.77
56795;BME280;42678;59.400;18.410;2022-10-17T12:03:51;101845.28;;;13.17;59.66
56795;BME280;42678;59.400;18.410;2022-10-17T12:06:58;101854.91;;;13.21;59.13
56795;BME280;42678;59.400;18.410;2022-10-17T12:09:42;101849.63;;;13.43;58.77
56795;BME280;42678;59.400;18.410;2022-10-17T12:12:26;101844.44;;;13.40;58.42
56795;BME280;42678;59.400;18.410;2022-10-17T12:14:52;101844.00;;;13.46;58.88
56795;BME280;42678;59.400;18.410;2022-10-17T12:17:28;101847.72;;;13.57;57.26
56795;BME280;42678;59.400;18.410;2022-10-17T12:20:23;101844.78;;;13.60;57.37
56795;BME280;42678;59.400;18.410;2022-10-17T12:22:56;101843.06;;;13.59;57.76
56795;BME280;42678;59.400;18.410;2022-10-17T12:25:26;101847.97;;;13.53;57.38
56795;BME280;42678;59.400;18.410;2022-10-17T12:33:58;101839.84;;;13.53;58.61
56795;BME280;42678;59.400;18.410;2022-10-17T12:46:47;101827.31;;;13.52;62.04
56795;BME280;42678;59.400;18.410;2022-10-17T12:52:16;101818.78;;;13.35;63.71
56795;BME280;42678;59.400;18.410;2022-10-17T13:00:32;101834.16;;;13.09;64.00
56795;BME280;42678;59.400;18.410;2022-10-17T13:03:08;101821.34;;;13.00;65.01
56795;BME280;42678;59.400;18.410;2022-10-17T13:05:37;101827.97;;;12.95;65.32
56795;BME280;42678;59.400;18.410;2022-10-17T13:08:06;101840.16;;;12.88;65.35
56795;BME280;42678;59.400;18.410;2022-10-17T13:10:36;101832.06;;;12.88;66.24
56795;BME280;42678;59.400;18.410;2022-10-17T13:13:15;101836.72;;;12.86;66.43
56795;BME280;42678;59.400;18.410;2022-10-17T13:15:50;101836.72;;;12.74;67.10
56795;BME280;42678;59.400;18.410;2022-10-17T13:18:23;101836.22;;;12.69;67.25
56795;BME280;42678;59.400;18.410;2022-10-17T13:20:58;101843.16;;;12.60;67.32
56795;BME280;42678;59.400;18.410;2022-10-17T13:23:32;101829.56;;;12.49;67.21
56795;BME280;42678;59.400;18.410;2022-10-17T13:26:11;101849.41;;;12.48;67.79
56795;BME280;42678;59.400;18.410;2022-10-17T13:28:37;101849.41;;;12.48;68.01
56795;BME280;42678;59.400;18.410;2022-10-17T13:31:03;101839.03;;;12.42;68.60
56795;BME280;42678;59.400;18.410;2022-10-17T13:33:39;101850.69;;;12.42;69.09
56795;BME280;42678;59.400;18.410;2022-10-17T13:36:11;101840.34;;;12.36;68.81
56795;BME280;42678;59.400;18.410;2022-10-17T13:38:40;101846.06;;;12.31;69.10
56795;BME280;42678;59.400;18.410;2022-10-17T13:41:10;101843.03;;;12.23;69.71
56795;BME280;42678;59.400;18.410;2022-10-17T13:43:37;101840.16;;;12.26;69.20
56795;BME280;42678;59.400;18.410;2022-10-17T13:46:04;101831.50;;;12.21;69.82
56795;BME280;42678;59.400;18.410;2022-10-17T13:48:33;101840.66;;;12.19;69.80
56795;BME280;42678;59.400;18.410;2022-10-17T13:51:02;101835.50;;;12.16;69.81
56795;BME280;42678;59.400;18.410;2022-10-17T13:53:37;101829.25;;;12.15;69.90
56795;BME280;42678;59.400;18.410;2022-10-17T13:56:25;101824.59;;;12.17;69.98
56795;BME280;42678;59.400;18.410;2022-10-17T13:58:53;101832.03;;;12.14;69.63
56795;BME280;42678;59.400;18.410;2022-10-17T14:01:23;101828.25;;;12.16;69.97
56795;BME280;42678;59.400;18.410;2022-10-17T14:03:49;101821.56;;;12.09;70.52
56795;BME280;42678;59.400;18.410;2022-10-17T14:06:23;101808.63;;;12.14;70.15
56795;BME280;42678;59.400;18.410;2022-10-17T14:08:59;101818.78;;;12.11;70.31
56795;BME280;42678;59.400;18.410;2022-10-17T14:11:38;101849.69;;;12.05;70.95
56795;BME280;42678;59.400;18.410;2022-10-17T14:14:14;101873.53;;;11.98;71.51
56795;BME280;42678;59.400;18.410;2022-10-17T14:16:42;101865.94;;;11.91;72.19
56795;BME280;42678;59.400;18.410;2022-10-17T14:19:34;101873.84;;;11.94;71.88
56795;BME280;42678;59.400;18.410;2022-10-17T14:24:44;101863.78;;;11.83;72.28
56795;BME280;42678;59.400;18.410;2022-10-17T14:27:31;101854.44;;;11.74;72.23
56795;BME280;42678;59.400;18.410;2022-10-17T14:30:01;101824.16;;;11.71;72.62
56795;BME280;42678;59.400;18.410;2022-10-17T14:32:30;101835.22;;;11.81;72.44
56795;BME280;42678;59.400;18.410;2022-10-17T14:34:59;101844.84;;;11.70;72.56
56795;BME280;42678;59.400;18.410;2022-10-17T14:37:40;101843.25;;;11.68;72.64
56795;BME280;42678;59.400;18.410;2022-10-17T14:40:19;101843.03;;;11.71;73.10
56795;BME280;42678;59.400;18.410;2022-10-17T14:42:46;101853.38;;;11.64;73.42
56795;BME280;42678;59.400;18.410;2022-10-17T14:45:17;101850.88;;;11.61;73.48